createdAt,value
2018-03-25T00:00:35.401Z,32.40
2018-03-25T00:03:03.688Z,31.95
2018-03-25T00:05:31.267Z,35.75
2018-03-25T00:07:58.806Z,33.25
2018-03-25T00:10:26.283Z,33.53
2018-03-25T00:12:53.790Z,33.97
2018-03-25T00:15:22.215Z,31.77
2018-03-25T00:17:51.739Z,33.78
2018-03-25T00:20:19.234Z,32.60
2018-03-25T00:22:46.717Z,33.75
2018-03-25T00:25:14.295Z,34.22
2018-03-25T00:27:41.838Z,35.95
2018-03-25T00:30:09.337Z,34.75
2018-03-25T00:32:36.837Z,35.30
2018-03-25T00:35:05.105Z,35.22
2018-03-25T00:37:33.691Z,36.83
2018-03-25T00:40:02.758Z,35.25
2018-03-25T00:42:30.303Z,34.33
2018-03-25T00:44:57.797Z,35.25
2018-03-25T00:47:26.096Z,33.25
2018-03-25T00:49:54.351Z,35.30
2018-03-25T00:52:22.032Z,35.78
2018-03-25T00:54:50.313Z,36.97
2018-03-25T00:57:17.822Z,36.13
2018-03-25T00:59:45.456Z,35.85
2018-03-25T01:02:14.754Z,34.08
2018-03-25T01:04:42.384Z,36.78
2018-03-25T01:07:09.878Z,35.50
2018-03-25T01:09:37.377Z,37.25
2018-03-25T01:12:04.850Z,37.03
2018-03-25T01:14:33.294Z,36.08
2018-03-25T01:17:00.786Z,37.72
2018-03-25T01:19:28.466Z,36.80
2018-03-25T01:21:56.027Z,37.45
2018-03-25T01:24:24.282Z,37.08
2018-03-25T01:26:52.546Z,39.63
2018-03-25T01:29:20.135Z,38.15
2018-03-25T01:31:47.653Z,36.85
2018-03-25T01:34:15.144Z,39.45
2018-03-25T01:36:43.530Z,37.00
2018-03-25T01:39:11.782Z,38.28
2018-03-25T01:41:39.299Z,39.05
2018-03-25T01:44:07.021Z,40.95
2018-03-25T01:46:34.623Z,41.00
2018-03-25T01:49:02.135Z,39.80
2018-03-25T01:51:30.405Z,41.20
2018-03-25T01:53:57.890Z,40.88
2018-03-25T01:56:25.395Z,40.88
2018-03-25T01:58:52.877Z,40.20
2018-03-25T02:01:20.538Z,38.95
2018-03-25T02:03:48.043Z,41.10
2018-03-25T02:06:15.526Z,40.55
2018-03-25T02:08:43.008Z,40.25
2018-03-25T02:11:10.530Z,40.67
2018-03-25T02:13:38.018Z,42.88
2018-03-25T02:16:05.498Z,41.10
2018-03-25T02:18:33.079Z,40.70
2018-03-25T02:21:00.566Z,43.53
2018-03-25T02:23:28.150Z,42.40
2018-03-25T02:25:55.696Z,42.42
2018-03-25T02:28:23.174Z,40.63
2018-03-25T02:30:50.658Z,41.10
2018-03-25T02:33:18.928Z,41.88
2018-03-25T02:35:47.203Z,43.38
2018-03-25T02:38:17.471Z,41.40
2018-03-25T02:40:44.986Z,42.90
2018-03-25T02:43:14.354Z,41.92
2018-03-25T02:45:41.842Z,41.95
2018-03-25T02:48:10.098Z,41.92
2018-03-25T02:50:38.005Z,42.55
2018-03-25T02:53:05.674Z,46.53
2018-03-25T02:55:34.013Z,41.17
2018-03-25T02:58:01.503Z,46.65
2018-03-25T03:00:29.743Z,43.20
2018-03-25T03:02:57.246Z,44.75
2018-03-25T03:05:24.851Z,42.58
2018-03-25T03:07:52.338Z,44.03
2018-03-25T03:10:20.739Z,44.28
2018-03-25T03:12:48.229Z,46.03
2018-03-25T03:15:15.714Z,43.03
2018-03-25T03:17:43.204Z,44.20
2018-03-25T03:20:11.563Z,43.05
2018-03-25T03:22:39.168Z,45.10
2018-03-25T03:25:06.799Z,47.20
2018-03-25T03:27:34.366Z,45.70
2018-03-25T03:30:01.847Z,46.35
2018-03-25T03:32:29.334Z,46.58
2018-03-25T03:34:56.836Z,46.65
2018-03-25T03:37:24.498Z,50.33
2018-03-25T03:39:52.250Z,48.08
2018-03-25T03:42:19.804Z,47.45
2018-03-25T03:44:47.283Z,44.08
2018-03-25T03:47:16.624Z,43.45
2018-03-25T03:49:44.201Z,48.63
2018-03-25T03:52:11.680Z,48.87
2018-03-25T03:54:39.158Z,46.03
2018-03-25T03:57:06.686Z,47.85
2018-03-25T03:59:34.173Z,46.10
2018-03-25T04:02:01.715Z,46.08
2018-03-25T04:04:29.211Z,48.67
2018-03-25T04:06:56.692Z,47.35
2018-03-25T04:09:24.174Z,47.20
2018-03-25T04:11:51.666Z,48.13
2018-03-25T04:14:19.259Z,48.58
2018-03-25T04:16:46.742Z,46.80
2018-03-25T04:19:14.436Z,50.70
2018-03-25T04:21:41.934Z,47.00
2018-03-25T04:24:09.422Z,47.53
2018-03-25T04:26:37.101Z,46.92
2018-03-25T04:29:05.493Z,50.05
2018-03-25T04:31:34.894Z,45.65
2018-03-25T04:34:02.440Z,48.42
2018-03-25T04:36:29.954Z,50.05
2018-03-25T04:38:57.492Z,48.03
2018-03-25T04:41:25.022Z,48.35
2018-03-25T04:43:52.586Z,46.83
2018-03-25T04:46:20.846Z,50.15
2018-03-25T04:48:48.334Z,45.80
2018-03-25T04:51:16.573Z,45.72
2018-03-25T04:53:44.062Z,51.80
2018-03-25T04:56:12.392Z,49.85
2018-03-25T04:58:39.870Z,45.75
2018-03-25T05:01:07.394Z,47.72
2018-03-25T05:03:35.746Z,48.60
2018-03-25T05:06:03.237Z,45.12
2018-03-25T05:08:31.721Z,48.03
2018-03-25T05:10:59.361Z,49.13
2018-03-25T05:13:26.878Z,46.92
2018-03-25T05:15:54.370Z,49.13
2018-03-25T05:18:21.851Z,48.40
2018-03-25T05:20:49.334Z,51.20
2018-03-25T05:23:17.769Z,51.00
2018-03-25T05:25:45.271Z,49.85
2018-03-25T05:28:12.750Z,51.83
2018-03-25T05:30:40.282Z,52.67
2018-03-25T05:33:07.780Z,49.30
2018-03-25T05:35:36.030Z,49.75
2018-03-25T05:38:03.522Z,50.05
2018-03-25T05:40:33.259Z,50.83
2018-03-25T05:43:00.738Z,50.22
2018-03-25T05:45:28.946Z,52.00
2018-03-25T05:47:56.446Z,50.00
2018-03-25T05:50:23.935Z,51.25
2018-03-25T05:52:51.441Z,51.17
2018-03-25T05:55:18.931Z,51.25
2018-03-25T05:57:46.654Z,51.37
2018-03-25T06:00:15.044Z,52.17
2018-03-25T06:02:42.635Z,52.35
2018-03-25T06:05:10.187Z,51.45
2018-03-25T06:07:37.813Z,51.58
2018-03-25T06:10:05.421Z,48.80
2018-03-25T06:12:32.917Z,49.78
2018-03-25T06:15:00.411Z,48.65
2018-03-25T06:17:28.258Z,48.70
2018-03-25T06:19:58.280Z,50.05
2018-03-25T06:22:28.142Z,52.53
2018-03-25T06:24:57.317Z,49.00
2018-03-25T06:27:25.902Z,50.17
2018-03-25T06:29:54.290Z,51.53
2018-03-25T06:32:22.966Z,50.15
2018-03-25T06:34:52.024Z,50.75
2018-03-25T06:37:20.299Z,51.45
2018-03-25T06:39:50.363Z,50.70
2018-03-25T06:42:17.913Z,48.47
2018-03-25T06:44:45.412Z,51.22
2018-03-25T06:47:12.895Z,46.95
2018-03-25T06:49:40.477Z,48.78
2018-03-25T06:52:07.986Z,48.47
2018-03-25T06:54:35.474Z,47.60
2018-03-25T06:57:03.719Z,48.05
2018-03-25T06:59:31.242Z,50.12
2018-03-25T07:01:58.724Z,50.70
2018-03-25T07:04:26.210Z,45.53
2018-03-25T07:06:54.501Z,46.03
2018-03-25T07:09:22.900Z,47.80
2018-03-25T07:11:50.460Z,47.58
2018-03-25T07:14:17.978Z,47.10
2018-03-25T07:16:45.536Z,45.40
2018-03-25T07:19:13.106Z,45.05
2018-03-25T07:21:41.986Z,45.70
2018-03-25T07:24:09.466Z,47.85
2018-03-25T07:29:12.194Z,46.58
2018-03-25T07:31:40.035Z,46.50
2018-03-25T07:34:07.599Z,46.42
2018-03-25T07:36:35.233Z,43.85
2018-03-25T07:39:03.494Z,45.58
2018-03-25T07:41:31.766Z,45.17
2018-03-25T07:43:59.269Z,46.83
2018-03-25T07:46:26.813Z,44.08
2018-03-25T07:48:55.088Z,40.17
2018-03-25T07:51:23.382Z,40.12
2018-03-25T07:53:50.871Z,43.90
2018-03-25T07:56:18.381Z,38.72
2018-03-25T07:58:46.652Z,39.15
2018-03-25T08:01:14.215Z,41.47
2018-03-25T08:03:42.591Z,41.03
2018-03-25T08:06:10.766Z,36.95
2018-03-25T08:08:39.047Z,41.58
2018-03-25T08:11:06.548Z,40.35
2018-03-25T08:13:34.215Z,39.05
2018-03-25T08:16:01.811Z,38.90
2018-03-25T08:18:29.316Z,38.60
2018-03-25T08:20:56.818Z,36.33
2018-03-25T08:23:24.314Z,37.37
2018-03-25T08:25:51.842Z,37.60
2018-03-25T08:28:19.478Z,37.07
2018-03-25T08:30:47.092Z,39.80
2018-03-25T08:33:14.608Z,37.20
2018-03-25T08:35:42.125Z,37.70
2018-03-25T08:38:09.839Z,35.97
2018-03-25T08:40:37.802Z,36.67
2018-03-25T08:43:05.378Z,35.43
2018-03-25T08:45:32.885Z,35.23
2018-03-25T08:48:00.472Z,32.33
2018-03-25T08:50:27.979Z,31.40
2018-03-25T08:52:56.631Z,31.40
2018-03-25T08:55:24.179Z,31.00
2018-03-25T08:57:51.852Z,29.70
2018-03-25T09:00:19.454Z,28.57
2018-03-25T09:02:46.948Z,28.47
2018-03-25T09:05:14.490Z,30.43
2018-03-25T09:07:41.982Z,28.13
2018-03-25T09:10:09.464Z,26.43
2018-03-25T09:12:37.736Z,25.50
2018-03-25T09:15:05.994Z,28.17
2018-03-25T09:17:33.534Z,26.90
2018-03-25T09:20:01.059Z,26.53
2018-03-25T09:22:29.371Z,25.80
2018-03-25T09:24:56.899Z,23.77
2018-03-25T09:27:24.506Z,26.90
2018-03-25T09:29:52.043Z,26.27
2018-03-25T09:32:19.581Z,24.90
2018-03-25T09:34:47.081Z,23.37
2018-03-25T09:37:15.849Z,26.07
2018-03-25T09:39:43.406Z,25.03
2018-03-25T09:42:10.994Z,22.20
2018-03-25T09:44:39.302Z,26.17
2018-03-25T09:47:07.647Z,23.73
2018-03-25T09:49:35.236Z,25.00
2018-03-25T09:52:03.504Z,26.10
2018-03-25T09:54:31.146Z,25.70
2018-03-25T09:56:58.774Z,27.00
2018-03-25T09:59:26.395Z,24.13
2018-03-25T10:02:00.467Z,26.10
2018-03-25T10:04:27.970Z,27.07
2018-03-25T10:06:56.219Z,27.00
2018-03-25T10:09:24.507Z,26.53
2018-03-25T10:11:52.798Z,26.30
2018-03-25T10:14:21.093Z,27.43
2018-03-25T10:16:48.633Z,29.70
2018-03-25T10:19:16.107Z,28.80
2018-03-25T10:21:43.630Z,26.97
2018-03-25T10:24:11.114Z,27.67
2018-03-25T10:26:38.638Z,27.80
2018-03-25T10:29:06.118Z,28.57
2018-03-25T10:31:34.413Z,28.80
2018-03-25T10:34:01.904Z,27.47
2018-03-25T10:36:29.437Z,25.80
2018-03-25T10:38:56.964Z,27.50
2018-03-25T10:41:25.217Z,25.77
2018-03-25T10:43:52.726Z,29.00
2018-03-25T10:46:20.257Z,27.03
2018-03-25T10:48:48.523Z,27.80
2018-03-25T10:51:16.029Z,28.33
2018-03-25T10:53:43.654Z,25.47
2018-03-25T10:56:11.926Z,27.07
2018-03-25T10:58:40.193Z,26.17
2018-03-25T11:01:07.731Z,27.80
2018-03-25T11:03:35.218Z,28.00
2018-03-25T11:06:03.499Z,27.67
2018-03-25T11:08:31.811Z,26.77
2018-03-25T11:10:59.330Z,29.57
2018-03-25T11:13:27.605Z,28.93
2018-03-25T11:15:55.101Z,29.03
2018-03-25T11:18:22.603Z,28.53
2018-03-25T11:20:50.190Z,32.67
2018-03-25T11:23:18.437Z,30.93
2018-03-25T11:25:45.930Z,31.90
2018-03-25T11:28:14.174Z,31.30
2018-03-25T11:30:41.682Z,33.90
2018-03-25T11:33:09.195Z,33.50
2018-03-25T11:35:36.894Z,32.10
2018-03-25T11:38:04.413Z,31.27
2018-03-25T11:40:31.904Z,34.20
2018-03-25T11:43:00.150Z,34.47
2018-03-25T11:45:27.642Z,32.20
2018-03-25T11:47:55.887Z,34.63
2018-03-25T11:50:24.182Z,34.20
2018-03-25T11:52:52.492Z,34.57
2018-03-25T11:55:20.005Z,34.30
2018-03-25T11:57:47.498Z,32.87
2018-03-25T12:00:14.994Z,33.17
2018-03-25T12:02:42.480Z,34.37
2018-03-25T12:05:09.971Z,37.97
2018-03-25T12:07:37.466Z,37.87
2018-03-25T12:10:04.986Z,35.67
2018-03-25T12:12:32.580Z,36.57
2018-03-25T12:15:00.174Z,36.00
2018-03-25T12:17:27.637Z,34.40
2018-03-25T12:19:55.259Z,36.93
2018-03-25T12:22:22.734Z,36.33
2018-03-25T12:24:50.284Z,34.33
2018-03-25T12:27:17.770Z,36.77
2018-03-25T12:29:45.306Z,34.83
2018-03-25T12:32:12.802Z,36.70
2018-03-25T12:34:41.046Z,36.33
2018-03-25T12:37:08.531Z,37.93
2018-03-25T12:39:36.906Z,37.10
2018-03-25T12:42:05.166Z,37.17
2018-03-25T12:44:32.646Z,36.77
2018-03-25T12:47:00.965Z,38.57
2018-03-25T12:49:28.450Z,37.80
2018-03-25T12:51:55.945Z,34.07
2018-03-25T12:54:24.232Z,37.80
2018-03-25T12:56:51.718Z,34.57
2018-03-25T12:59:19.203Z,37.47
2018-03-25T13:01:46.762Z,37.63
2018-03-25T13:04:14.250Z,36.20
2018-03-25T13:06:42.518Z,38.80
2018-03-25T13:09:10.794Z,40.43
2018-03-25T13:11:39.313Z,39.63
2018-03-25T13:14:06.934Z,40.83
2018-03-25T13:16:34.522Z,40.17
2018-03-25T13:19:02.095Z,38.40
2018-03-25T13:21:29.639Z,40.17
2018-03-25T13:23:57.274Z,39.77
2018-03-25T13:26:24.758Z,37.50
2018-03-25T13:28:52.321Z,39.20
2018-03-25T13:31:19.844Z,39.27
2018-03-25T13:33:47.454Z,39.37
2018-03-25T13:36:14.937Z,36.47
2018-03-25T13:38:42.528Z,35.97
2018-03-25T13:41:10.908Z,34.10
2018-03-25T13:43:39.190Z,33.40
2018-03-25T13:46:07.467Z,32.43
2018-03-25T13:48:35.739Z,34.30
2018-03-25T13:51:03.222Z,35.90
2018-03-25T13:53:30.836Z,36.63
2018-03-25T13:55:58.367Z,34.00
2018-03-25T13:58:25.906Z,35.13
2018-03-25T14:00:53.449Z,35.60
2018-03-25T14:03:21.700Z,35.37
2018-03-25T14:05:51.020Z,35.80
2018-03-25T14:08:18.534Z,36.70
2018-03-25T14:10:46.078Z,35.50
2018-03-25T14:13:13.570Z,36.30
2018-03-25T14:15:41.055Z,37.53
2018-03-25T14:18:09.318Z,36.30
2018-03-25T14:20:37.025Z,34.90
2018-03-25T14:23:05.254Z,38.27
2018-03-25T14:25:32.775Z,37.77
2018-03-25T14:28:00.264Z,36.83
2018-03-25T14:30:27.750Z,36.10
2018-03-25T14:32:56.071Z,37.63
2018-03-25T14:35:23.576Z,39.27
2018-03-25T14:37:51.083Z,40.27
2018-03-25T14:40:18.617Z,38.03
2018-03-25T14:42:46.148Z,36.47
2018-03-25T14:45:13.676Z,39.17
2018-03-25T14:47:41.225Z,38.87
2018-03-25T14:50:08.711Z,38.93
2018-03-25T14:52:36.241Z,41.53
2018-03-25T14:55:03.756Z,41.27
2018-03-25T14:57:32.022Z,41.43
2018-03-25T15:00:00.289Z,42.80
2018-03-25T15:02:27.798Z,41.90
2018-03-25T15:04:55.294Z,41.80
2018-03-25T15:07:22.790Z,43.77
2018-03-25T15:09:50.346Z,42.37
2018-03-25T15:12:18.667Z,43.30
2018-03-25T15:14:46.156Z,41.67
2018-03-25T15:17:13.667Z,43.63
2018-03-25T15:19:41.183Z,41.43
2018-03-25T15:22:08.813Z,42.40
2018-03-25T15:24:36.314Z,41.70
2018-03-25T15:27:04.570Z,43.27
2018-03-25T15:29:32.079Z,46.07
2018-03-25T15:31:59.815Z,41.07
2018-03-25T15:34:27.355Z,42.00
2018-03-25T15:36:54.891Z,43.70
2018-03-25T15:39:22.396Z,42.70
2018-03-25T15:41:49.935Z,42.67
2018-03-25T15:44:18.225Z,43.90
2018-03-25T15:46:46.481Z,41.77
2018-03-25T15:49:14.073Z,42.03
2018-03-25T15:51:41.576Z,44.23
2018-03-25T15:54:09.078Z,43.00
2018-03-25T15:56:37.449Z,44.20
2018-03-25T15:59:05.734Z,42.50
2018-03-25T16:01:33.982Z,42.37
2018-03-25T16:04:01.533Z,43.83
2018-03-25T16:06:29.026Z,42.43
2018-03-25T16:08:57.278Z,43.50
2018-03-25T16:11:24.810Z,41.90
2018-03-25T16:16:26.963Z,41.87
2018-03-25T16:18:54.456Z,42.07
2018-03-25T16:21:21.945Z,44.10
2018-03-25T16:23:49.456Z,43.43
2018-03-25T16:26:16.945Z,43.10
2018-03-25T16:28:44.434Z,41.20
2018-03-25T16:31:12.705Z,41.00
2018-03-25T16:33:41.023Z,43.77
2018-03-25T16:36:08.624Z,42.73
2018-03-25T16:38:36.173Z,42.10
2018-03-25T16:41:03.753Z,43.73
2018-03-25T16:43:31.227Z,42.87
2018-03-25T16:45:59.518Z,44.87
2018-03-25T16:48:27.044Z,44.23
2018-03-25T16:50:55.348Z,45.30
2018-03-25T16:53:23.625Z,43.73
2018-03-25T16:55:51.181Z,43.90
2018-03-25T16:58:19.445Z,46.10
2018-03-25T17:00:46.950Z,47.33
2018-03-25T17:03:14.533Z,46.80
2018-03-25T17:05:42.022Z,46.27
2018-03-25T17:08:10.282Z,46.37
2018-03-25T17:10:38.633Z,44.73
2018-03-25T17:13:06.138Z,46.40
2018-03-25T17:15:33.696Z,44.25
2018-03-25T17:18:01.971Z,43.78
2018-03-25T17:20:30.236Z,45.17
2018-03-25T17:22:57.808Z,44.20
2018-03-25T17:25:26.082Z,44.55
2018-03-25T17:27:54.345Z,41.33
2018-03-25T17:30:21.891Z,41.95
2018-03-25T17:32:49.382Z,38.20
2018-03-25T17:35:17.636Z,38.83
2018-03-25T17:37:45.135Z,38.03
2018-03-25T17:40:12.658Z,36.85
2018-03-25T17:42:40.154Z,37.05
2018-03-25T17:45:08.345Z,36.65
2018-03-25T17:47:35.886Z,36.15
2018-03-25T17:50:03.393Z,37.38
2018-03-25T17:52:30.891Z,37.42
2018-03-25T17:54:58.410Z,37.28
2018-03-25T17:57:25.901Z,36.95
2018-03-25T17:59:54.178Z,37.90
2018-03-25T18:02:22.535Z,37.45
2018-03-25T18:04:50.018Z,34.20
2018-03-25T18:07:18.284Z,34.53
2018-03-25T18:09:46.550Z,35.92
2018-03-25T18:12:14.814Z,34.35
2018-03-25T18:14:43.063Z,32.20
2018-03-25T18:17:33.461Z,34.25
2018-03-25T18:19:38.072Z,31.60
2018-03-25T18:22:05.636Z,32.83
2018-03-25T18:24:33.199Z,31.62
2018-03-25T18:27:00.701Z,34.58
2018-03-25T18:29:28.186Z,31.87
2018-03-25T18:31:55.694Z,30.85
2018-03-25T18:34:23.965Z,32.00
2018-03-25T18:36:52.213Z,31.17
2018-03-25T18:39:19.743Z,31.92
2018-03-25T18:41:48.077Z,31.37
2018-03-25T18:44:15.561Z,32.35
2018-03-25T18:46:43.054Z,31.15
2018-03-25T18:49:10.589Z,31.17
2018-03-25T18:51:38.924Z,30.00
2018-03-25T18:54:06.472Z,29.02
2018-03-25T18:56:33.954Z,30.02
2018-03-25T18:59:01.438Z,29.60
2018-03-25T19:01:29.737Z,31.62
2018-03-25T19:03:58.085Z,29.90
2018-03-25T19:06:25.588Z,31.62
2018-03-25T19:08:53.157Z,31.23
2018-03-25T19:11:20.659Z,33.25
2018-03-25T19:13:48.148Z,30.02
2018-03-25T19:16:16.422Z,30.30
2018-03-25T19:18:43.981Z,31.30
2018-03-25T19:21:12.238Z,27.90
2018-03-25T19:23:39.874Z,29.25
2018-03-25T19:26:07.391Z,31.65
2018-03-25T19:28:34.970Z,31.23
2018-03-25T19:31:02.470Z,31.42
2018-03-25T19:33:29.954Z,29.83
2018-03-25T19:35:58.234Z,30.20
2018-03-25T19:38:25.778Z,29.73
2018-03-25T19:40:54.063Z,29.65
2018-03-25T19:43:22.314Z,29.37
2018-03-25T19:45:50.263Z,28.48
2018-03-25T19:48:18.542Z,29.25
2018-03-25T19:50:46.032Z,28.12
2018-03-25T19:53:13.566Z,32.25
2018-03-25T19:55:41.045Z,30.85
2018-03-25T19:58:12.275Z,28.67
2018-03-25T20:00:39.750Z,31.80
2018-03-25T20:03:07.235Z,29.08
2018-03-25T20:05:34.759Z,29.87
2018-03-25T20:08:04.560Z,31.15
2018-03-25T20:10:32.657Z,30.70
2018-03-25T20:13:01.672Z,28.48
2018-03-25T20:15:30.741Z,31.58
2018-03-25T20:17:58.271Z,31.30
2018-03-25T20:20:25.758Z,28.85
2018-03-25T20:22:53.806Z,31.90
2018-03-25T20:25:21.292Z,33.80
2018-03-25T20:27:48.796Z,29.37
2018-03-25T20:30:17.037Z,30.85
2018-03-25T20:32:45.376Z,29.98
2018-03-25T20:35:13.714Z,30.30
2018-03-25T20:37:41.253Z,30.55
2018-03-25T20:40:09.523Z,30.58
2018-03-25T20:42:37.076Z,33.17
2018-03-25T20:45:05.529Z,33.10
2018-03-25T20:47:33.018Z,31.35
2018-03-25T20:50:01.279Z,31.90
2018-03-25T20:52:28.834Z,33.45
2018-03-25T20:54:56.330Z,32.33
2018-03-25T20:57:24.586Z,31.10
2018-03-25T20:59:52.095Z,32.15
2018-03-25T21:02:19.611Z,31.95
2018-03-25T21:04:47.866Z,30.08
2018-03-25T21:07:15.350Z,31.58
2018-03-25T21:09:43.734Z,30.98
2018-03-25T21:12:11.222Z,30.73
2018-03-25T21:14:38.703Z,33.05
2018-03-25T21:17:07.024Z,29.65
2018-03-25T21:19:35.266Z,31.15
2018-03-25T21:22:02.746Z,29.60
2018-03-25T21:24:31.021Z,33.13
2018-03-25T21:26:59.316Z,30.52
2018-03-25T21:29:26.826Z,30.98
2018-03-25T21:31:54.318Z,31.90
2018-03-25T21:34:22.601Z,30.58
2018-03-25T21:36:50.848Z,32.10
2018-03-25T21:39:18.337Z,30.90
2018-03-25T21:41:46.614Z,31.35
2018-03-25T21:44:14.871Z,30.58
2018-03-25T21:46:42.350Z,30.00
2018-03-25T21:49:10.627Z,30.30
2018-03-25T21:51:38.878Z,33.30
2018-03-25T21:54:06.359Z,31.98
2018-03-25T21:56:34.630Z,29.15
2018-03-25T21:59:02.885Z,32.72
2018-03-25T22:01:30.367Z,30.70
2018-03-25T22:03:59.452Z,30.58
2018-03-25T22:06:27.730Z,31.40
2018-03-25T22:08:55.985Z,29.02
2018-03-25T22:11:23.470Z,28.20
2018-03-25T22:13:51.800Z,29.73
2018-03-25T22:16:19.298Z,31.87
2018-03-25T22:18:59.247Z,28.77
2018-03-25T22:21:29.422Z,27.60
2018-03-25T22:23:56.944Z,29.50
2018-03-25T22:26:24.491Z,26.40
2018-03-25T22:28:52.762Z,27.65
2018-03-25T22:31:20.243Z,30.10
2018-03-25T22:33:47.842Z,29.83
2018-03-25T22:36:15.329Z,28.48
2018-03-25T22:38:42.881Z,30.30
2018-03-25T22:41:10.373Z,31.02
2018-03-25T22:43:39.325Z,30.62
2018-03-25T22:46:06.807Z,28.25
2018-03-25T22:48:34.326Z,30.70
2018-03-25T22:51:02.457Z,32.78
2018-03-25T22:53:30.729Z,31.08
2018-03-25T22:55:59.614Z,31.00
2018-03-25T22:58:27.901Z,29.15
2018-03-25T23:00:56.158Z,30.73
2018-03-25T23:03:24.150Z,30.15
2018-03-25T23:05:51.650Z,30.88
2018-03-25T23:08:20.112Z,31.17
2018-03-25T23:10:47.976Z,31.25
2018-03-25T23:13:15.462Z,30.40
2018-03-25T23:15:43.567Z,30.60
2018-03-25T23:18:12.701Z,33.97
2018-03-25T23:20:43.678Z,33.22
2018-03-25T23:23:11.172Z,33.45
2018-03-25T23:25:40.327Z,34.00
2018-03-25T23:28:07.813Z,34.80
2018-03-25T23:30:35.285Z,34.80
2018-03-25T23:33:03.537Z,35.42
2018-03-25T23:35:31.031Z,35.17
2018-03-25T23:37:58.524Z,35.00
2018-03-25T23:40:26.006Z,34.13
2018-03-25T23:42:53.544Z,38.15
2018-03-25T23:45:21.022Z,40.15
2018-03-25T23:47:48.510Z,37.70
2018-03-25T23:50:16.816Z,37.90
2018-03-25T23:52:44.298Z,40.55
2018-03-25T23:55:13.587Z,40.88
2018-03-25T23:57:41.081Z,38.58
